sensor_id;sensor_type;location;lat;lon;timestamp;temperature;humidity
78788;DHT22;68131;52.508;5.502;2024-01-15T00:00:16;4.10;75.00
78788;DHT22;68131;52.508;5.502;2024-01-15T00:02:47;4.10;75.00
78788;DHT22;68131;52.508;5.502;2024-01-15T00:05:16;4.10;74.80
78788;DHT22;68131;52.508;5.502;2024-01-15T00:07:45;4.10;74.50
78788;DHT22;68131;52.508;5.502;2024-01-15T00:10:19;4.10;74.40
78788;DHT22;68131;52.508;5.502;2024-01-15T00:12:51;4.10;74.50
78788;DHT22;68131;52.508;5.502;2024-01-15T00:15:20;4.10;74.40
78788;DHT22;68131;52.508;5.502;2024-01-15T00:17:49;4.10;74.30
78788;DHT22;68131;52.508;5.502;2024-01-15T00:20:18;4.10;74.40
78788;DHT22;68131;52.508;5.502;2024-01-15T00:22:47;4.10;74.30
78788;DHT22;68131;52.508;5.502;2024-01-15T00:25:16;4.10;74.30
78788;DHT22;68131;52.508;5.502;2024-01-15T00:27:51;4.10;74.40
78788;DHT22;68131;52.508;5.502;2024-01-15T00:30:20;4.10;74.20
78788;DHT22;68131;52.508;5.502;2024-01-15T00:32:49;4.10;74.30
78788;DHT22;68131;52.508;5.502;2024-01-15T00:35:18;4.10;74.30
78788;DHT22;68131;52.508;5.502;2024-01-15T00:37:47;4.10;74.40
78788;DHT22;68131;52.508;5.502;2024-01-15T00:40:16;4.10;74.40
78788;DHT22;68131;52.508;5.502;2024-01-15T00:42:45;4.10;74.40
78788;DHT22;68131;52.508;5.502;2024-01-15T00:45:17;4.10;74.40
78788;DHT22;68131;52.508;5.502;2024-01-15T00:47:47;4.10;74.20
78788;DHT22;68131;52.508;5.502;2024-01-15T00:50:17;4.10;74.20
78788;DHT22;68131;52.508;5.502;2024-01-15T00:52:46;4.10;74.20
78788;DHT22;68131;52.508;5.502;2024-01-15T00:55:15;4.10;74.10
78788;DHT22;68131;52.508;5.502;2024-01-15T00:57:44;4.20;74.20
78788;DHT22;68131;52.508;5.502;2024-01-15T01:00:16;4.20;74.20
78788;DHT22;68131;52.508;5.502;2024-01-15T01:02:46;4.20;74.10
78788;DHT22;68131;52.508;5.502;2024-01-15T01:05:15;4.20;74.20
78788;DHT22;68131;52.508;5.502;2024-01-15T01:07:44;4.20;74.30
78788;DHT22;68131;52.508;5.502;2024-01-15T01:10:13;4.10;74.40
78788;DHT22;68131;52.508;5.502;2024-01-15T01:12:43;4.10;74.40
78788;DHT22;68131;52.508;5.502;2024-01-15T01:15:17;4.10;74.50
78788;DHT22;68131;52.508;5.502;2024-01-15T01:17:50;4.10;74.50
78788;DHT22;68131;52.508;5.502;2024-01-15T01:20:19;4.10;74.50
78788;DHT22;68131;52.508;5.502;2024-01-15T01:22:48;4.10;74.50
78788;DHT22;68131;52.508;5.502;2024-01-15T01:25:18;4.00;74.60
78788;DHT22;68131;52.508;5.502;2024-01-15T01:27:47;4.00;74.70
78788;DHT22;68131;52.508;5.502;2024-01-15T01:30:19;4.00;74.70
78788;DHT22;68131;52.508;5.502;2024-01-15T01:32:49;4.00;74.90
78788;DHT22;68131;52.508;5.502;2024-01-15T01:35:18;4.00;74.90
78788;DHT22;68131;52.508;5.502;2024-01-15T01:37:47;4.00;74.90
78788;DHT22;68131;52.508;5.502;2024-01-15T01:40:17;3.90;75.00
78788;DHT22;68131;52.508;5.502;2024-01-15T01:42:46;4.00;75.00
78788;DHT22;68131;52.508;5.502;2024-01-15T01:45:17;3.90;75.10
78788;DHT22;68131;52.508;5.502;2024-01-15T01:47:47;3.90;75.10
78788;DHT22;68131;52.508;5.502;2024-01-15T01:50:16;3.90;75.10
78788;DHT22;68131;52.508;5.502;2024-01-15T01:52:46;3.90;75.10
78788;DHT22;68131;52.508;5.502;2024-01-15T01:55:15;3.90;75.20
78788;DHT22;68131;52.508;5.502;2024-01-15T01:57:44;4.00;75.20
78788;DHT22;68131;52.508;5.502;2024-01-15T02:00:14;4.00;75.20
78788;DHT22;68131;52.508;5.502;2024-01-15T02:02:46;4.00;75.10
78788;DHT22;68131;52.508;5.502;2024-01-15T02:05:18;3.90;75.10
78788;DHT22;68131;52.508;5.502;2024-01-15T02:07:48;3.90;75.10
78788;DHT22;68131;52.508;5.502;2024-01-15T02:10:17;3.90;75.10
78788;DHT22;68131;52.508;5.502;2024-01-15T02:12:46;3.90;75.10
78788;DHT22;68131;52.508;5.502;2024-01-15T02:15:16;3.80;75.20
78788;DHT22;68131;52.508;5.502;2024-01-15T02:18:01;3.80;75.20
78788;DHT22;68131;52.508;5.502;2024-01-15T02:20:32;3.80;75.30
78788;DHT22;68131;52.508;5.502;2024-01-15T02:23:12;3.80;75.30
78788;DHT22;68131;52.508;5.502;2024-01-15T02:25:43;3.80;75.30
78788;DHT22;68131;52.508;5.502;2024-01-15T02:28:14;3.80;75.20
78788;DHT22;68131;52.508;5.502;2024-01-15T02:30:44;3.80;75.20
78788;DHT22;68131;52.508;5.502;2024-01-15T02:33:15;3.90;75.20
78788;DHT22;68131;52.508;5.502;2024-01-15T02:35:44;3.90;75.20
78788;DHT22;68131;52.508;5.502;2024-01-15T02:38:21;3.90;75.20
78788;DHT22;68131;52.508;5.502;2024-01-15T02:40:50;3.90;75.10
78788;DHT22;68131;52.508;5.502;2024-01-15T02:43:19;3.90;75.10
78788;DHT22;68131;52.508;5.502;2024-01-15T02:45:48;3.90;75.20
78788;DHT22;68131;52.508;5.502;2024-01-15T02:48:21;3.90;75.20
78788;DHT22;68131;52.508;5.502;2024-01-15T02:50:50;3.90;75.40
78788;DHT22;68131;52.508;5.502;2024-01-15T02:53:21;3.90;75.50
78788;DHT22;68131;52.508;5.502;2024-01-15T02:55:50;3.90;75.60
78788;DHT22;68131;52.508;5.502;2024-01-15T02:58:22;3.90;75.70
78788;DHT22;68131;52.508;5.502;2024-01-15T03:00:51;3.90;75.80
78788;DHT22;68131;52.508;5.502;2024-01-15T03:03:21;3.90;76.00
78788;DHT22;68131;52.508;5.502;2024-01-15T03:05:50;3.90;76.00
78788;DHT22;68131;52.508;5.502;2024-01-15T03:08:24;3.90;76.10
78788;DHT22;68131;52.508;5.502;2024-01-15T03:10:53;3.90;76.00
78788;DHT22;68131;52.508;5.502;2024-01-15T03:13:22;3.90;76.10
78788;DHT22;68131;52.508;5.502;2024-01-15T03:15:51;3.90;75.90
78788;DHT22;68131;52.508;5.502;2024-01-15T03:18:20;3.90;75.80
78788;DHT22;68131;52.508;5.502;2024-01-15T03:20:49;3.90;75.70
78788;DHT22;68131;52.508;5.502;2024-01-15T03:23:21;3.80;75.70
78788;DHT22;68131;52.508;5.502;2024-01-15T03:25:50;3.80;75.60
78788;DHT22;68131;52.508;5.502;2024-01-15T03:28:19;3.80;75.60
78788;DHT22;68131;52.508;5.502;2024-01-15T03:30:48;3.80;75.50
78788;DHT22;68131;52.508;5.502;2024-01-15T03:33:17;3.80;75.50
78788;DHT22;68131;52.508;5.502;2024-01-15T03:35:47;3.80;75.40
78788;DHT22;68131;52.508;5.502;2024-01-15T03:38:16;3.80;75.30
78788;DHT22;68131;52.508;5.502;2024-01-15T03:40:48;3.80;75.30
78788;DHT22;68131;52.508;5.502;2024-01-15T03:43:17;3.80;75.40
78788;DHT22;68131;52.508;5.502;2024-01-15T03:45:46;3.80;75.50
78788;DHT22;68131;52.508;5.502;2024-01-15T03:48:15;3.80;75.60
78788;DHT22;68131;52.508;5.502;2024-01-15T03:50:44;3.80;75.40
78788;DHT22;68131;52.508;5.502;2024-01-15T03:53:13;3.90;75.50
78788;DHT22;68131;52.508;5.502;2024-01-15T03:55:42;3.90;75.40
78788;DHT22;68131;52.508;5.502;2024-01-15T03:58:14;3.90;75.30
78788;DHT22;68131;52.508;5.502;2024-01-15T04:00:44;3.90;75.40
78788;DHT22;68131;52.508;5.502;2024-01-15T04:03:13;4.00;75.40
78788;DHT22;68131;52.508;5.502;2024-01-15T04:05:42;4.00;75.40
78788;DHT22;68131;52.508;5.502;2024-01-15T04:08:11;4.00;75.40
78788;DHT22;68131;52.508;5.502;2024-01-15T04:10:40;4.00;75.40
78788;DHT22;68131;52.508;5.502;2024-01-15T04:13:09;4.00;75.60
78788;DHT22;68131;52.508;5.502;2024-01-15T04:15:41;4.00;75.70
78788;DHT22;68131;52.508;5.502;2024-01-15T04:18:10;4.00;75.70
78788;DHT22;68131;52.508;5.502;2024-01-15T04:20:39;4.00;75.70
78788;DHT22;68131;52.508;5.502;2024-01-15T04:23:09;4.00;75.70
78788;DHT22;68131;52.508;5.502;2024-01-15T04:25:38;4.00;75.90
78788;DHT22;68131;52.508;5.502;2024-01-15T04:28:08;4.00;75.90
78788;DHT22;68131;52.508;5.502;2024-01-15T04:30:38;4.00;75.80
78788;DHT22;68131;52.508;5.502;2024-01-15T04:33:09;4.00;75.90
78788;DHT22;68131;52.508;5.502;2024-01-15T04:35:38;3.90;75.90
78788;DHT22;68131;52.508;5.502;2024-01-15T04:38:08;3.90;76.00
78788;DHT22;68131;52.508;5.502;2024-01-15T04:40:37;3.90;75.90
78788;DHT22;68131;52.508;5.502;2024-01-15T04:43:07;3.90;76.00
78788;DHT22;68131;52.508;5.502;2024-01-15T04:45:36;3.90;76.10
78788;DHT22;68131;52.508;5.502;2024-01-15T04:48:05;3.90;76.10
78788;DHT22;68131;52.508;5.502;2024-01-15T04:50:37;4.00;76.20
78788;DHT22;68131;52.508;5.502;2024-01-15T04:53:06;4.00;76.10
78788;DHT22;68131;52.508;5.502;2024-01-15T04:55:35;4.00;76.10
78788;DHT22;68131;52.508;5.502;2024-01-15T04:58:05;4.00;76.00
78788;DHT22;68131;52.508;5.502;2024-01-15T05:00:34;4.00;76.00
78788;DHT22;68131;52.508;5.502;2024-01-15T05:03:04;4.00;75.70
78788;DHT22;68131;52.508;5.502;2024-01-15T05:05:35;3.90;75.70
78788;DHT22;68131;52.508;5.502;2024-01-15T05:08:05;3.90;75.60
78788;DHT22;68131;52.508;5.502;2024-01-15T05:10:34;3.80;75.70
78788;DHT22;68131;52.508;5.502;2024-01-15T05:13:04;3.80;75.80
78788;DHT22;68131;52.508;5.502;2024-01-15T05:15:33;3.80;75.90
78788;DHT22;68131;52.508;5.502;2024-01-15T05:18:02;3.80;75.90
78788;DHT22;68131;52.508;5.502;2024-01-15T05:20:31;3.80;75.90
78788;DHT22;68131;52.508;5.502;2024-01-15T05:23:03;3.80;76.00
78788;DHT22;68131;52.508;5.502;2024-01-15T05:25:32;3.80;75.90
78788;DHT22;68131;52.508;5.502;2024-01-15T05:28:02;3.70;75.90
78788;DHT22;68131;52.508;5.502;2024-01-15T05:30:31;3.70;76.00
78788;DHT22;68131;52.508;5.502;2024-01-15T05:33:00;3.70;75.90
78788;DHT22;68131;52.508;5.502;2024-01-15T05:35:29;3.70;76.00
78788;DHT22;68131;52.508;5.502;2024-01-15T05:37:58;3.70;76.00
78788;DHT22;68131;52.508;5.502;2024-01-15T05:40:30;3.70;75.90
78788;DHT22;68131;52.508;5.502;2024-01-15T05:43:04;3.80;75.70
78788;DHT22;68131;52.508;5.502;2024-01-15T05:45:34;3.70;75.80
78788;DHT22;68131;52.508;5.502;2024-01-15T05:48:04;3.80;75.90
78788;DHT22;68131;52.508;5.502;2024-01-15T05:50:33;3.80;75.80
78788;DHT22;68131;52.508;5.502;2024-01-15T05:53:03;3.80;75.80
78788;DHT22;68131;52.508;5.502;2024-01-15T05:55:35;3.80;75.90
78788;DHT22;68131;52.508;5.502;2024-01-15T05:58:05;3.80;75.80
78788;DHT22;68131;52.508;5.502;2024-01-15T06:00:34;3.80;75.80
78788;DHT22;68131;52.508;5.502;2024-01-15T06:03:04;3.80;75.80
78788;DHT22;68131;52.508;5.502;2024-01-15T06:05:33;3.80;75.90
78788;DHT22;68131;52.508;5.502;2024-01-15T06:08:06;3.80;75.90
78788;DHT22;68131;52.508;5.502;2024-01-15T06:10:37;3.80;75.90
78788;DHT22;68131;52.508;5.502;2024-01-15T06:13:06;3.80;75.80
78788;DHT22;68131;52.508;5.502;2024-01-15T06:15:35;3.80;75.80
78788;DHT22;68131;52.508;5.502;2024-01-15T06:18:05;3.80;75.60
78788;DHT22;68131;52.508;5.502;2024-01-15T06:20:34;3.70;75.60
78788;DHT22;68131;52.508;5.502;2024-01-15T06:23:04;3.70;75.50
78788;DHT22;68131;52.508;5.502;2024-01-15T06:25:33;3.70;75.60
78788;DHT22;68131;52.508;5.502;2024-01-15T06:28:05;3.70;75.60
78788;DHT22;68131;52.508;5.502;2024-01-15T06:30:34;3.60;75.60
78788;DHT22;68131;52.508;5.502;2024-01-15T06:33:05;3.60;75.70
78788;DHT22;68131;52.508;5.502;2024-01-15T06:35:34;3.60;75.80
78788;DHT22;68131;52.508;5.502;2024-01-15T06:38:03;3.60;75.80
78788;DHT22;68131;52.508;5.502;2024-01-15T06:40:32;3.50;75.70
78788;DHT22;68131;52.508;5.502;2024-01-15T06:43:01;3.50;75.90
78788;DHT22;68131;52.508;5.502;2024-01-15T06:45:33;3.50;76.00
78788;DHT22;68131;52.508;5.502;2024-01-15T06:48:03;3.60;76.10
78788;DHT22;68131;52.508;5.502;2024-01-15T06:50:33;3.60;76.20
78788;DHT22;68131;52.508;5.502;2024-01-15T06:53:03;3.60;76.10
78788;DHT22;68131;52.508;5.502;2024-01-15T06:55:32;3.60;76.30
78788;DHT22;68131;52.508;5.502;2024-01-15T06:58:01;3.60;76.40
78788;DHT22;68131;52.508;5.502;2024-01-15T07:00:33;3.60;76.50
78788;DHT22;68131;52.508;5.502;2024-01-15T07:03:02;3.60;76.50
78788;DHT22;68131;52.508;5.502;2024-01-15T07:05:32;3.60;76.50
78788;DHT22;68131;52.508;5.502;2024-01-15T07:08:01;3.60;76.50
78788;DHT22;68131;52.508;5.502;2024-01-15T07:10:30;3.60;76.50
78788;DHT22;68131;52.508;5.502;2024-01-15T07:12:59;3.60;76.40
78788;DHT22;68131;52.508;5.502;2024-01-15T07:15:28;3.60;76.40
78788;DHT22;68131;52.508;5.502;2024-01-15T07:18:00;3.60;76.40
78788;DHT22;68131;52.508;5.502;2024-01-15T07:20:29;3.60;76.50
78788;DHT22;68131;52.508;5.502;2024-01-15T07:22:58;3.60;76.60
78788;DHT22;68131;52.508;5.502;2024-01-15T07:25:28;3.60;76.50
78788;DHT22;68131;52.508;5.502;2024-01-15T07:27:57;3.60;76.50
78788;DHT22;68131;52.508;5.502;2024-01-15T07:30:26;3.60;76.40
78788;DHT22;68131;52.508;5.502;2024-01-15T07:32:55;3.60;76.50
78788;DHT22;68131;52.508;5.502;2024-01-15T07:35:27;3.60;76.50
78788;DHT22;68131;52.508;5.502;2024-01-15T07:37:56;3.70;76.50
78788;DHT22;68131;52.508;5.502;2024-01-15T07:40:25;3.70;76.50
78788;DHT22;68131;52.508;5.502;2024-01-15T07:42:54;3.70;76.40
78788;DHT22;68131;52.508;5.502;2024-01-15T07:45:23;3.70;76.30
78788;DHT22;68131;52.508;5.502;2024-01-15T07:47:53;3.80;76.00
78788;DHT22;68131;52.508;5.502;2024-01-15T07:50:22;3.70;75.70
78788;DHT22;68131;52.508;5.502;2024-01-15T07:52:54;3.80;75.80
78788;DHT22;68131;52.508;5.502;2024-01-15T07:55:23;3.70;75.70
78788;DHT22;68131;52.508;5.502;2024-01-15T07:57:52;3.70;75.70
78788;DHT22;68131;52.508;5.502;2024-01-15T08:00:25;3.70;75.60
78788;DHT22;68131;52.508;5.502;2024-01-15T08:02:54;3.60;75.60
78788;DHT22;68131;52.508;5.502;2024-01-15T08:05:23;3.60;75.70
78788;DHT22;68131;52.508;5.502;2024-01-15T08:07:55;3.60;75.80
78788;DHT22;68131;52.508;5.502;2024-01-15T08:10:24;3.60;75.70
78788;DHT22;68131;52.508;5.502;2024-01-15T08:12:53;3.60;75.70
78788;DHT22;68131;52.508;5.502;2024-01-15T08:15:22;3.60;75.80
78788;DHT22;68131;52.508;5.502;2024-01-15T08:17:51;3.60;75.60
78788;DHT22;68131;52.508;5.502;2024-01-15T08:20:21;3.50;75.80
78788;DHT22;68131;52.508;5.502;2024-01-15T08:22:50;3.60;75.80
78788;DHT22;68131;52.508;5.502;2024-01-15T08:25:21;3.60;75.90
78788;DHT22;68131;52.508;5.502;2024-01-15T08:27:52;3.50;75.80
78788;DHT22;68131;52.508;5.502;2024-01-15T08:30:21;3.60;75.80
78788;DHT22;68131;52.508;5.502;2024-01-15T08:32:53;3.60;75.90
78788;DHT22;68131;52.508;5.502;2024-01-15T08:35:22;3.60;75.90
78788;DHT22;68131;52.508;5.502;2024-01-15T08:37:52;3.60;76.00
78788;DHT22;68131;52.508;5.502;2024-01-15T08:40:24;3.60;76.00
78788;DHT22;68131;52.508;5.502;2024-01-15T08:42:53;3.70;75.80
78788;DHT22;68131;52.508;5.502;2024-01-15T08:45:22;3.70;75.70
78788;DHT22;68131;52.508;5.502;2024-01-15T08:47:49;3.80;75.80
78788;DHT22;68131;52.508;5.502;2024-01-15T08:50:18;3.90;75.70
78788;DHT22;68131;52.508;5.502;2024-01-15T08:52:47;4.00;75.60
78788;DHT22;68131;52.508;5.502;2024-01-15T08:55:16;4.10;75.60
78788;DHT22;68131;52.508;5.502;2024-01-15T08:57:49;4.10;75.30
78788;DHT22;68131;52.508;5.502;2024-01-15T09:00:18;4.00;75.10
78788;DHT22;68131;52.508;5.502;2024-01-15T09:02:47;3.90;75.20
78788;DHT22;68131;52.508;5.502;2024-01-15T09:05:17;3.90;75.30
78788;DHT22;68131;52.508;5.502;2024-01-15T09:07:46;3.80;75.40
78788;DHT22;68131;52.508;5.502;2024-01-15T09:10:17;3.80;75.50
78788;DHT22;68131;52.508;5.502;2024-01-15T09:12:49;3.80;75.60
78788;DHT22;68131;52.508;5.502;2024-01-15T09:15:18;3.80;75.70
78788;DHT22;68131;52.508;5.502;2024-01-15T09:17:47;3.70;75.70
78788;DHT22;68131;52.508;5.502;2024-01-15T09:20:17;3.80;76.10
78788;DHT22;68131;52.508;5.502;2024-01-15T09:22:46;3.90;76.10
78788;DHT22;68131;52.508;5.502;2024-01-15T09:25:15;4.00;76.00
78788;DHT22;68131;52.508;5.502;2024-01-15T09:27:45;4.10;75.70
78788;DHT22;68131;52.508;5.502;2024-01-15T09:30:17;4.10;75.40
78788;DHT22;68131;52.508;5.502;2024-01-15T09:32:46;4.10;75.40
78788;DHT22;68131;52.508;5.502;2024-01-15T09:35:15;4.00;75.40
78788;DHT22;68131;52.508;5.502;2024-01-15T09:37:44;4.00;75.50
78788;DHT22;68131;52.508;5.502;2024-01-15T09:40:14;4.10;75.60
78788;DHT22;68131;52.508;5.502;2024-01-15T09:42:44;4.20;75.60
78788;DHT22;68131;52.508;5.502;2024-01-15T09:45:16;4.30;75.60
78788;DHT22;68131;52.508;5.502;2024-01-15T09:47:45;4.40;75.40
78788;DHT22;68131;52.508;5.502;2024-01-15T09:50:15;4.50;75.50
78788;DHT22;68131;52.508;5.502;2024-01-15T09:52:44;4.60;75.50
78788;DHT22;68131;52.508;5.502;2024-01-15T09:55:14;4.70;75.30
78788;DHT22;68131;52.508;5.502;2024-01-15T09:57:44;4.80;74.60
78788;DHT22;68131;52.508;5.502;2024-01-15T10:00:18;4.90;74.40
78788;DHT22;68131;52.508;5.502;2024-01-15T10:02:47;4.90;74.50
78788;DHT22;68131;52.508;5.502;2024-01-15T10:05:16;4.90;74.50
78788;DHT22;68131;52.508;5.502;2024-01-15T10:07:46;5.00;74.50
78788;DHT22;68131;52.508;5.502;2024-01-15T10:10:16;5.00;74.40
78788;DHT22;68131;52.508;5.502;2024-01-15T10:12:45;5.00;74.10
78788;DHT22;68131;52.508;5.502;2024-01-15T10:15:17;5.00;74.00
78788;DHT22;68131;52.508;5.502;2024-01-15T10:17:46;5.00;74.00
78788;DHT22;68131;52.508;5.502;2024-01-15T10:20:15;5.00;73.90
78788;DHT22;68131;52.508;5.502;2024-01-15T10:22:45;5.00;73.70
78788;DHT22;68131;52.508;5.502;2024-01-15T10:25:15;5.00;73.80
78788;DHT22;68131;52.508;5.502;2024-01-15T10:27:58;5.10;73.90
78788;DHT22;68131;52.508;5.502;2024-01-15T10:30:31;5.20;73.70
78788;DHT22;68131;52.508;5.502;2024-01-15T10:33:01;5.20;73.20
78788;DHT22;68131;52.508;5.502;2024-01-15T10:35:32;5.10;73.00
78788;DHT22;68131;52.508;5.502;2024-01-15T10:38:02;5.10;73.00
78788;DHT22;68131;52.508;5.502;2024-01-15T10:40:31;5.00;73.00
78788;DHT22;68131;52.508;5.502;2024-01-15T10:43:01;5.00;73.40
78788;DHT22;68131;52.508;5.502;2024-01-15T10:45:33;4.90;73.60
78788;DHT22;68131;52.508;5.502;2024-01-15T10:48:02;4.90;73.60
78788;DHT22;68131;52.508;5.502;2024-01-15T10:50:32;4.80;73.70
78788;DHT22;68131;52.508;5.502;2024-01-15T10:53:01;4.80;73.90
78788;DHT22;68131;52.508;5.502;2024-01-15T10:55:32;4.80;73.80
78788;DHT22;68131;52.508;5.502;2024-01-15T10:58:02;4.80;74.00
78788;DHT22;68131;52.508;5.502;2024-01-15T11:00:37;4.80;74.10
78788;DHT22;68131;52.508;5.502;2024-01-15T11:03:07;4.90;74.20
78788;DHT22;68131;52.508;5.502;2024-01-15T11:05:37;5.00;74.20
78788;DHT22;68131;52.508;5.502;2024-01-15T11:08:07;5.10;74.00
78788;DHT22;68131;52.508;5.502;2024-01-15T11:10:41;5.10;73.50
78788;DHT22;68131;52.508;5.502;2024-01-15T11:13:18;5.00;73.50
78788;DHT22;68131;52.508;5.502;2024-01-15T11:15:58;4.90;73.70
78788;DHT22;68131;52.508;5.502;2024-01-15T11:18:29;4.70;73.60
78788;DHT22;68131;52.508;5.502;2024-01-15T11:21:20;4.60;74.00
78788;DHT22;68131;52.508;5.502;2024-01-15T11:23:52;4.50;74.00
78788;DHT22;68131;52.508;5.502;2024-01-15T11:26:34;4.40;74.30
78788;DHT22;68131;52.508;5.502;2024-01-15T11:29:05;4.40;74.40
78788;DHT22;68131;52.508;5.502;2024-01-15T11:31:59;4.40;74.30
78788;DHT22;68131;52.508;5.502;2024-01-15T11:34:59;4.30;74.50
78788;DHT22;68131;52.508;5.502;2024-01-15T11:37:58;4.30;74.40
78788;DHT22;68131;52.508;5.502;2024-01-15T11:40:38;4.20;74.50
78788;DHT22;68131;52.508;5.502;2024-01-15T11:43:08;4.20;74.50
78788;DHT22;68131;52.508;5.502;2024-01-15T11:45:39;4.20;74.60
78788;DHT22;68131;52.508;5.502;2024-01-15T11:48:14;4.20;74.80
78788;DHT22;68131;52.508;5.502;2024-01-15T11:50:45;4.20;74.90
78788;DHT22;68131;52.508;5.502;2024-01-15T11:53:32;4.20;75.00
78788;DHT22;68131;52.508;5.502;2024-01-15T11:56:02;4.30;74.90
78788;DHT22;68131;52.508;5.502;2024-01-15T11:58:32;4.30;75.10
78788;DHT22;68131;52.508;5.502;2024-01-15T12:01:03;4.40;75.00
78788;DHT22;68131;52.508;5.502;2024-01-15T12:03:35;4.50;75.00
78788;DHT22;68131;52.508;5.502;2024-01-15T12:06:06;4.60;74.70
78788;DHT22;68131;52.508;5.502;2024-01-15T12:08:36;4.60;74.60
78788;DHT22;68131;52.508;5.502;2024-01-15T12:11:07;4.70;74.70
78788;DHT22;68131;52.508;5.502;2024-01-15T12:13:40;4.70;74.70
78788;DHT22;68131;52.508;5.502;2024-01-15T12:16:09;4.80;74.50
78788;DHT22;68131;52.508;5.502;2024-01-15T12:18:41;4.90;74.20
78788;DHT22;68131;52.508;5.502;2024-01-15T12:21:10;4.90;73.80
78788;DHT22;68131;52.508;5.502;2024-01-15T12:23:39;4.90;73.60
78788;DHT22;68131;52.508;5.502;2024-01-15T12:26:09;4.90;73.60
78788;DHT22;68131;52.508;5.502;2024-01-15T12:28:38;4.80;73.60
78788;DHT22;68131;52.508;5.502;2024-01-15T12:31:07;4.80;73.60
78788;DHT22;68131;52.508;5.502;2024-01-15T12:33:36;4.80;73.50
78788;DHT22;68131;52.508;5.502;2024-01-15T12:36:08;4.70;73.40
78788;DHT22;68131;52.508;5.502;2024-01-15T12:38:38;4.70;73.50
78788;DHT22;68131;52.508;5.502;2024-01-15T12:41:07;4.70;73.60
78788;DHT22;68131;52.508;5.502;2024-01-15T12:43:37;4.70;73.60
78788;DHT22;68131;52.508;5.502;2024-01-15T12:46:06;4.70;73.20
78788;DHT22;68131;52.508;5.502;2024-01-15T12:48:35;4.80;73.00
78788;DHT22;68131;52.508;5.502;2024-01-15T12:51:08;4.80;73.00
78788;DHT22;68131;52.508;5.502;2024-01-15T12:53:37;4.90;72.90
78788;DHT22;68131;52.508;5.502;2024-01-15T12:56:07;4.90;72.40
78788;DHT22;68131;52.508;5.502;2024-01-15T12:58:36;4.90;72.00
78788;DHT22;68131;52.508;5.502;2024-01-15T13:01:05;4.90;72.20
78788;DHT22;68131;52.508;5.502;2024-01-15T13:03:34;4.90;72.30
78788;DHT22;68131;52.508;5.502;2024-01-15T13:06:04;4.90;72.20
78788;DHT22;68131;52.508;5.502;2024-01-15T13:08:36;5.00;71.80
78788;DHT22;68131;52.508;5.502;2024-01-15T13:11:05;5.00;71.80
78788;DHT22;68131;52.508;5.502;2024-01-15T13:13:36;5.10;71.60
78788;DHT22;68131;52.508;5.502;2024-01-15T13:16:05;5.10;71.60
78788;DHT22;68131;52.508;5.502;2024-01-15T13:18:35;5.20;71.00
78788;DHT22;68131;52.508;5.502;2024-01-15T13:21:04;5.10;70.90
78788;DHT22;68131;52.508;5.502;2024-01-15T13:23:36;5.00;71.00
78788;DHT22;68131;52.508;5.502;2024-01-15T13:26:05;4.90;71.40
78788;DHT22;68131;52.508;5.502;2024-01-15T13:28:35;4.90;71.60
78788;DHT22;68131;52.508;5.502;2024-01-15T13:31:06;4.80;71.80
78788;DHT22;68131;52.508;5.502;2024-01-15T13:33:35;4.80;72.10
78788;DHT22;68131;52.508;5.502;2024-01-15T13:36:05;4.80;72.20
78788;DHT22;68131;52.508;5.502;2024-01-15T13:38:39;4.70;72.20
78788;DHT22;68131;52.508;5.502;2024-01-15T13:41:08;4.70;72.30
78788;DHT22;68131;52.508;5.502;2024-01-15T13:43:37;4.80;72.40
78788;DHT22;68131;52.508;5.502;2024-01-15T13:46:06;4.80;72.50
78788;DHT22;68131;52.508;5.502;2024-01-15T13:48:36;4.80;72.50
78788;DHT22;68131;52.508;5.502;2024-01-15T13:51:06;4.80;72.60
78788;DHT22;68131;52.508;5.502;2024-01-15T13:53:35;4.80;72.60
78788;DHT22;68131;52.508;5.502;2024-01-15T13:56:08;4.80;72.60
78788;DHT22;68131;52.508;5.502;2024-01-15T13:58:38;4.80;72.80
78788;DHT22;68131;52.508;5.502;2024-01-15T14:01:09;4.80;72.70
78788;DHT22;68131;52.508;5.502;2024-01-15T14:03:38;4.80;72.50
78788;DHT22;68131;52.508;5.502;2024-01-15T14:06:07;4.80;72.60
78788;DHT22;68131;52.508;5.502;2024-01-15T14:08:38;4.80;72.40
78788;DHT22;68131;52.508;5.502;2024-01-15T14:11:10;4.80;72.50
78788;DHT22;68131;52.508;5.502;2024-01-15T14:13:39;4.70;72.40
78788;DHT22;68131;52.508;5.502;2024-01-15T14:16:08;4.70;72.40
78788;DHT22;68131;52.508;5.502;2024-01-15T14:18:38;4.70;72.50
78788;DHT22;68131;52.508;5.502;2024-01-15T14:21:07;4.70;72.50
78788;DHT22;68131;52.508;5.502;2024-01-15T14:23:36;4.70;72.30
78788;DHT22;68131;52.508;5.502;2024-01-15T14:26:06;4.70;72.20
78788;DHT22;68131;52.508;5.502;2024-01-15T14:28:38;4.80;72.00
78788;DHT22;68131;52.508;5.502;2024-01-15T14:31:07;4.80;71.80
78788;DHT22;68131;52.508;5.502;2024-01-15T14:33:36;4.90;71.50
78788;DHT22;68131;52.508;5.502;2024-01-15T14:36:06;4.90;71.10
78788;DHT22;68131;52.508;5.502;2024-01-15T14:38:35;4.90;71.20
78788;DHT22;68131;52.508;5.502;2024-01-15T14:41:04;5.00;71.20
78788;DHT22;68131;52.508;5.502;2024-01-15T14:43:33;5.00;71.30
78788;DHT22;68131;52.508;5.502;2024-01-15T14:46:05;5.00;70.80
78788;DHT22;68131;52.508;5.502;2024-01-15T14:48:34;4.90;70.80
78788;DHT22;68131;52.508;5.502;2024-01-15T14:51:06;4.80;71.10
78788;DHT22;68131;52.508;5.502;2024-01-15T14:53:35;4.60;71.20
78788;DHT22;68131;52.508;5.502;2024-01-15T14:56:04;4.40;71.60
78788;DHT22;68131;52.508;5.502;2024-01-15T14:58:34;4.30;71.80
78788;DHT22;68131;52.508;5.502;2024-01-15T15:01:07;4.20;72.20
78788;DHT22;68131;52.508;5.502;2024-01-15T15:03:37;4.20;72.30
78788;DHT22;68131;52.508;5.502;2024-01-15T15:06:06;4.20;72.50
78788;DHT22;68131;52.508;5.502;2024-01-15T15:08:36;4.20;72.60
78788;DHT22;68131;52.508;5.502;2024-01-15T15:11:06;4.20;72.70
78788;DHT22;68131;52.508;5.502;2024-01-15T15:13:37;4.20;72.70
78788;DHT22;68131;52.508;5.502;2024-01-15T15:16:08;4.30;72.70
78788;DHT22;68131;52.508;5.502;2024-01-15T15:18:42;4.30;72.60
78788;DHT22;68131;52.508;5.502;2024-01-15T15:21:12;4.30;72.40
78788;DHT22;68131;52.508;5.502;2024-01-15T15:23:41;4.30;72.40
78788;DHT22;68131;52.508;5.502;2024-01-15T15:26:10;4.30;72.20
78788;DHT22;68131;52.508;5.502;2024-01-15T15:28:39;4.40;72.10
78788;DHT22;68131;52.508;5.502;2024-01-15T15:31:11;4.40;71.80
78788;DHT22;68131;52.508;5.502;2024-01-15T15:33:40;4.30;71.60
78788;DHT22;68131;52.508;5.502;2024-01-15T15:36:10;4.30;71.80
78788;DHT22;68131;52.508;5.502;2024-01-15T15:38:39;4.30;72.00
78788;DHT22;68131;52.508;5.502;2024-01-15T15:41:08;4.20;72.10
78788;DHT22;68131;52.508;5.502;2024-01-15T15:43:38;4.10;72.30
78788;DHT22;68131;52.508;5.502;2024-01-15T15:46:12;4.10;72.50
78788;DHT22;68131;52.508;5.502;2024-01-15T15:48:41;4.10;72.70
78788;DHT22;68131;52.508;5.502;2024-01-15T15:51:10;4.10;72.70
78788;DHT22;68131;52.508;5.502;2024-01-15T15:53:40;4.10;72.80
78788;DHT22;68131;52.508;5.502;2024-01-15T15:56:18;4.00;72.70
78788;DHT22;68131;52.508;5.502;2024-01-15T15:58:47;3.90;72.90
78788;DHT22;68131;52.508;5.502;2024-01-15T16:01:18;3.70;73.10
78788;DHT22;68131;52.508;5.502;2024-01-15T16:03:48;3.60;73.50